sensor_id;sensor_type;location;lat;lon;timestamp;P1;durP1;ratioP1;P2;durP2;ratioP2
56680;SDS011;42558;52.388;13.390;2024-02-16T00:00:38;22.42;;;15.01;;
56680;SDS011;42558;52.388;13.390;2024-02-16T00:03:09;27.36;;;16.72;;
56680;SDS011;42558;52.388;13.390;2024-02-16T00:05:40;22.61;;;15.77;;
56680;SDS011;42558;52.388;13.390;2024-02-16T00:08:10;28.69;;;18.05;;
56680;SDS011;42558;52.388;13.390;2024-02-16T00:10:40;33.25;;;17.67;;
56680;SDS011;42558;52.388;13.390;2024-02-16T00:13:10;30.78;;;17.86;;
56680;SDS011;42558;52.388;13.390;2024-02-16T00:15:40;28.88;;;18.24;;
56680;SDS011;42558;52.388;13.390;2024-02-16T00:18:10;29.07;;;19.38;;
56680;SDS011;42558;52.388;13.390;2024-02-16T00:20:41;29.83;;;19.00;;
56680;SDS011;42558;52.388;13.390;2024-02-16T00:23:11;27.93;;;19.19;;
56680;SDS011;42558;52.388;13.390;2024-02-16T00:25:41;28.50;;;17.67;;
56680;SDS011;42558;52.388;13.390;2024-02-16T00:28:11;28.69;;;18.81;;
56680;SDS011;42558;52.388;13.390;2024-02-16T00:30:41;29.64;;;18.81;;
56680;SDS011;42558;52.388;13.390;2024-02-16T00:33:11;30.59;;;19.76;;
56680;SDS011;42558;52.388;13.390;2024-02-16T00:35:41;34.96;;;20.52;;
56680;SDS011;42558;52.388;13.390;2024-02-16T00:38:11;28.12;;;19.76;;
56680;SDS011;42558;52.388;13.390;2024-02-16T00:40:42;33.06;;;20.90;;
56680;SDS011;42558;52.388;13.390;2024-02-16T00:43:13;29.26;;;18.62;;
56680;SDS011;42558;52.388;13.390;2024-02-16T00:45:44;29.64;;;20.71;;
56680;SDS011;42558;52.388;13.390;2024-02-16T00:48:14;31.73;;;20.33;;
56680;SDS011;42558;52.388;13.390;2024-02-16T00:50:45;31.92;;;21.09;;
56680;SDS011;42558;52.388;13.390;2024-02-16T00:53:15;30.02;;;20.71;;
56680;SDS011;42558;52.388;13.390;2024-02-16T00:55:45;31.16;;;19.95;;
56680;SDS011;42558;52.388;13.390;2024-02-16T00:58:15;30.40;;;20.14;;
56680;SDS011;42558;52.388;13.390;2024-02-16T01:00:45;27.55;;;17.10;;
56680;SDS011;42558;52.388;13.390;2024-02-16T01:03:16;29.83;;;19.57;;
56680;SDS011;42558;52.388;13.390;2024-02-16T01:05:46;32.30;;;19.95;;
56680;SDS011;42558;52.388;13.390;2024-02-16T01:08:15;29.26;;;19.00;;
56680;SDS011;42558;52.388;13.390;2024-02-16T01:10:45;27.17;;;19.00;;
56680;SDS011;42558;52.388;13.390;2024-02-16T01:13:16;29.07;;;18.81;;
56680;SDS011;42558;52.388;13.390;2024-02-16T01:15:46;28.69;;;18.24;;
56680;SDS011;42558;52.388;13.390;2024-02-16T01:18:16;30.40;;;19.76;;
56680;SDS011;42558;52.388;13.390;2024-02-16T01:20:46;31.92;;;20.14;;
56680;SDS011;42558;52.388;13.390;2024-02-16T01:23:16;32.87;;;20.14;;
56680;SDS011;42558;52.388;13.390;2024-02-16T01:25:46;30.59;;;21.85;;
56680;SDS011;42558;52.388;13.390;2024-02-16T01:28:17;29.45;;;20.71;;
56680;SDS011;42558;52.388;13.390;2024-02-16T01:30:47;28.69;;;19.95;;
56680;SDS011;42558;52.388;13.390;2024-02-16T01:33:18;32.49;;;21.09;;
56680;SDS011;42558;52.388;13.390;2024-02-16T01:35:49;33.25;;;20.71;;
56680;SDS011;42558;52.388;13.390;2024-02-16T01:38:19;37.43;;;22.80;;
56680;SDS011;42558;52.388;13.390;2024-02-16T01:40:50;30.97;;;21.28;;
56680;SDS011;42558;52.388;13.390;2024-02-16T01:43:19;32.49;;;21.66;;
56680;SDS011;42558;52.388;13.390;2024-02-16T01:45:50;33.63;;;20.71;;
56680;SDS011;42558;52.388;13.390;2024-02-16T01:48:19;34.96;;;22.42;;
56680;SDS011;42558;52.388;13.390;2024-02-16T01:50:48;34.01;;;20.33;;
56680;SDS011;42558;52.388;13.390;2024-02-16T01:53:18;34.96;;;22.04;;
56680;SDS011;42558;52.388;13.390;2024-02-16T01:55:47;32.49;;;20.52;;
56680;SDS011;42558;52.388;13.390;2024-02-16T01:58:15;33.44;;;22.42;;
56680;SDS011;42558;52.388;13.390;2024-02-16T02:00:43;40.85;;;23.18;;
56680;SDS011;42558;52.388;13.390;2024-02-16T02:03:13;38.38;;;23.37;;
56680;SDS011;42558;52.388;13.390;2024-02-16T02:05:46;36.67;;;22.61;;
56680;SDS011;42558;52.388;13.390;2024-02-16T02:08:16;34.77;;;22.99;;
56680;SDS011;42558;52.388;13.390;2024-02-16T02:10:46;31.54;;;21.09;;
56680;SDS011;42558;52.388;13.390;2024-02-16T02:13:17;34.77;;;22.61;;
56680;SDS011;42558;52.388;13.390;2024-02-16T02:15:49;31.92;;;20.33;;
56680;SDS011;42558;52.388;13.390;2024-02-16T02:18:19;34.01;;;21.09;;
56680;SDS011;42558;52.388;13.390;2024-02-16T02:20:49;30.78;;;20.90;;
56680;SDS011;42558;52.388;13.390;2024-02-16T02:23:19;39.52;;;23.75;;
56680;SDS011;42558;52.388;13.390;2024-02-16T02:25:49;35.53;;;21.85;;
56680;SDS011;42558;52.388;13.390;2024-02-16T02:28:19;33.63;;;23.37;;
56680;SDS011;42558;52.388;13.390;2024-02-16T02:30:53;36.10;;;23.37;;
56680;SDS011;42558;52.388;13.390;2024-02-16T02:33:23;39.14;;;24.89;;
56680;SDS011;42558;52.388;13.390;2024-02-16T02:35:53;37.43;;;24.32;;
56680;SDS011;42558;52.388;13.390;2024-02-16T02:38:23;35.53;;;22.61;;
56680;SDS011;42558;52.388;13.390;2024-02-16T02:40:53;37.62;;;23.94;;
56680;SDS011;42558;52.388;13.390;2024-02-16T02:43:23;44.27;;;25.27;;
56680;SDS011;42558;52.388;13.390;2024-02-16T02:45:53;38.76;;;25.27;;
56680;SDS011;42558;52.388;13.390;2024-02-16T02:48:22;38.57;;;24.70;;
56680;SDS011;42558;52.388;13.390;2024-02-16T02:50:53;39.52;;;25.65;;
56680;SDS011;42558;52.388;13.390;2024-02-16T02:53:23;38.95;;;27.36;;
56680;SDS011;42558;52.388;13.390;2024-02-16T02:55:53;41.80;;;24.32;;
56680;SDS011;42558;52.388;13.390;2024-02-16T02:58:23;38.95;;;23.75;;
56680;SDS011;42558;52.388;13.390;2024-02-16T03:00:54;39.90;;;25.08;;
56680;SDS011;42558;52.388;13.390;2024-02-16T03:03:24;40.85;;;25.84;;
56680;SDS011;42558;52.388;13.390;2024-02-16T03:05:54;42.56;;;25.84;;
56680;SDS011;42558;52.388;13.390;2024-02-16T03:08:24;38.76;;;25.46;;
56680;SDS011;42558;52.388;13.390;2024-02-16T03:10:54;48.07;;;25.84;;
56680;SDS011;42558;52.388;13.390;2024-02-16T03:13:24;39.71;;;24.70;;
56680;SDS011;42558;52.388;13.390;2024-02-16T03:15:54;49.40;;;27.17;;
56680;SDS011;42558;52.388;13.390;2024-02-16T03:18:24;41.99;;;26.03;;
56680;SDS011;42558;52.388;13.390;2024-02-16T03:20:55;43.51;;;25.27;;
56680;SDS011;42558;52.388;13.390;2024-02-16T03:23:25;45.03;;;26.41;;
56680;SDS011;42558;52.388;13.390;2024-02-16T03:25:55;42.18;;;26.22;;
56680;SDS011;42558;52.388;13.390;2024-02-16T03:28:25;40.85;;;24.32;;
56680;SDS011;42558;52.388;13.390;2024-02-16T03:30:55;39.90;;;25.65;;
56680;SDS011;42558;52.388;13.390;2024-02-16T03:33:25;39.52;;;24.89;;
56680;SDS011;42558;52.388;13.390;2024-02-16T03:35:55;41.04;;;25.08;;
56680;SDS011;42558;52.388;13.390;2024-02-16T03:38:25;38.76;;;24.89;;
56680;SDS011;42558;52.388;13.390;2024-02-16T03:40:55;39.14;;;24.13;;
56680;SDS011;42558;52.388;13.390;2024-02-16T03:43:25;41.61;;;25.84;;
56680;SDS011;42558;52.388;13.390;2024-02-16T03:45:55;42.37;;;26.79;;
56680;SDS011;42558;52.388;13.390;2024-02-16T03:48:25;40.28;;;25.65;;
56680;SDS011;42558;52.388;13.390;2024-02-16T03:50:56;44.08;;;25.46;;
56680;SDS011;42558;52.388;13.390;2024-02-16T03:53:25;40.47;;;25.84;;
56680;SDS011;42558;52.388;13.390;2024-02-16T03:55:55;39.90;;;25.65;;
56680;SDS011;42558;52.388;13.390;2024-02-16T03:58:25;38.95;;;23.56;;
56680;SDS011;42558;52.388;13.390;2024-02-16T04:00:56;38.95;;;25.08;;
56680;SDS011;42558;52.388;13.390;2024-02-16T04:03:26;41.99;;;24.13;;
56680;SDS011;42558;52.388;13.390;2024-02-16T04:05:56;45.60;;;25.46;;
56680;SDS011;42558;52.388;13.390;2024-02-16T04:08:26;38.19;;;24.32;;
56680;SDS011;42558;52.388;13.390;2024-02-16T04:10:56;39.90;;;24.13;;
56680;SDS011;42558;52.388;13.390;2024-02-16T04:13:27;42.94;;;25.65;;
56680;SDS011;42558;52.388;13.390;2024-02-16T04:15:55;38.95;;;23.94;;
56680;SDS011;42558;52.388;13.390;2024-02-16T04:18:23;36.48;;;22.61;;
56680;SDS011;42558;52.388;13.390;2024-02-16T04:20:53;36.86;;;21.85;;
56680;SDS011;42558;52.388;13.390;2024-02-16T04:23:21;40.09;;;23.94;;
56680;SDS011;42558;52.388;13.390;2024-02-16T04:25:51;39.33;;;22.99;;
56680;SDS011;42558;52.388;13.390;2024-02-16T04:28:19;42.37;;;23.75;;
56680;SDS011;42558;52.388;13.390;2024-02-16T04:30:48;37.43;;;22.61;;
56680;SDS011;42558;52.388;13.390;2024-02-16T04:33:16;37.43;;;23.18;;
56680;SDS011;42558;52.388;13.390;2024-02-16T04:35:46;38.19;;;21.85;;
56680;SDS011;42558;52.388;13.390;2024-02-16T04:38:18;37.43;;;22.23;;
56680;SDS011;42558;52.388;13.390;2024-02-16T04:40:49;38.95;;;23.56;;
56680;SDS011;42558;52.388;13.390;2024-02-16T04:43:19;33.63;;;19.57;;
56680;SDS011;42558;52.388;13.390;2024-02-16T04:45:49;35.53;;;22.23;;
56680;SDS011;42558;52.388;13.390;2024-02-16T04:48:19;39.90;;;22.61;;
56680;SDS011;42558;52.388;13.390;2024-02-16T04:50:49;34.39;;;21.66;;
56680;SDS011;42558;52.388;13.390;2024-02-16T04:53:19;35.34;;;21.09;;
56680;SDS011;42558;52.388;13.390;2024-02-16T04:55:49;30.78;;;19.95;;
56680;SDS011;42558;52.388;13.390;2024-02-16T04:58:19;34.58;;;21.66;;
56680;SDS011;42558;52.388;13.390;2024-02-16T05:00:49;37.81;;;21.66;;
56680;SDS011;42558;52.388;13.390;2024-02-16T05:03:19;36.29;;;21.85;;
56680;SDS011;42558;52.388;13.390;2024-02-16T05:05:49;35.15;;;21.47;;
56680;SDS011;42558;52.388;13.390;2024-02-16T05:08:22;32.49;;;20.90;;
56680;SDS011;42558;52.388;13.390;2024-02-16T05:10:52;35.53;;;21.28;;
56680;SDS011;42558;52.388;13.390;2024-02-16T05:13:22;32.30;;;19.57;;
56680;SDS011;42558;52.388;13.390;2024-02-16T05:15:52;36.10;;;21.47;;
56680;SDS011;42558;52.388;13.390;2024-02-16T05:18:24;38.19;;;21.09;;
56680;SDS011;42558;52.388;13.390;2024-02-16T05:20:54;34.58;;;21.09;;
56680;SDS011;42558;52.388;13.390;2024-02-16T05:23:24;37.24;;;21.66;;
56680;SDS011;42558;52.388;13.390;2024-02-16T05:25:54;29.83;;;19.57;;
56680;SDS011;42558;52.388;13.390;2024-02-16T05:28:25;34.77;;;21.28;;
56680;SDS011;42558;52.388;13.390;2024-02-16T05:30:55;30.21;;;18.43;;
56680;SDS011;42558;52.388;13.390;2024-02-16T05:33:25;30.02;;;18.43;;
56680;SDS011;42558;52.388;13.390;2024-02-16T05:35:56;37.05;;;20.52;;
56680;SDS011;42558;52.388;13.390;2024-02-16T05:38:28;29.64;;;17.67;;
56680;SDS011;42558;52.388;13.390;2024-02-16T05:41:10;31.73;;;18.81;;
56680;SDS011;42558;52.388;13.390;2024-02-16T05:43:42;32.68;;;19.38;;
56680;SDS011;42558;52.388;13.390;2024-02-16T05:46:14;33.63;;;19.76;;
56680;SDS011;42558;52.388;13.390;2024-02-16T05:48:45;33.06;;;19.38;;
56680;SDS011;42558;52.388;13.390;2024-02-16T05:51:16;34.01;;;19.76;;
56680;SDS011;42558;52.388;13.390;2024-02-16T05:53:49;33.63;;;19.38;;
56680;SDS011;42558;52.388;13.390;2024-02-16T05:56:19;36.29;;;21.09;;
56680;SDS011;42558;52.388;13.390;2024-02-16T05:58:49;36.86;;;20.90;;
56680;SDS011;42558;52.388;13.390;2024-02-16T06:01:19;34.20;;;20.14;;
56680;SDS011;42558;52.388;13.390;2024-02-16T06:03:49;34.77;;;18.81;;
56680;SDS011;42558;52.388;13.390;2024-02-16T06:06:19;29.83;;;18.05;;
56680;SDS011;42558;52.388;13.390;2024-02-16T06:08:50;32.49;;;19.76;;
56680;SDS011;42558;52.388;13.390;2024-02-16T06:11:19;29.26;;;18.05;;
56680;SDS011;42558;52.388;13.390;2024-02-16T06:13:48;30.78;;;19.19;;
56680;SDS011;42558;52.388;13.390;2024-02-16T06:16:18;33.44;;;19.19;;
56680;SDS011;42558;52.388;13.390;2024-02-16T06:18:46;34.01;;;19.00;;
56680;SDS011;42558;52.388;13.390;2024-02-16T06:21:16;31.54;;;19.00;;
56680;SDS011;42558;52.388;13.390;2024-02-16T06:23:46;30.97;;;19.76;;
56680;SDS011;42558;52.388;13.390;2024-02-16T06:26:16;30.40;;;19.19;;
56680;SDS011;42558;52.388;13.390;2024-02-16T06:28:46;36.67;;;19.57;;
56680;SDS011;42558;52.388;13.390;2024-02-16T06:31:16;32.49;;;19.19;;
56680;SDS011;42558;52.388;13.390;2024-02-16T06:33:46;32.68;;;19.57;;
56680;SDS011;42558;52.388;13.390;2024-02-16T06:36:17;32.11;;;19.38;;
56680;SDS011;42558;52.388;13.390;2024-02-16T06:38:47;31.54;;;19.00;;
56680;SDS011;42558;52.388;13.390;2024-02-16T06:41:17;35.34;;;19.57;;
56680;SDS011;42558;52.388;13.390;2024-02-16T06:43:47;33.44;;;18.24;;
56680;SDS011;42558;52.388;13.390;2024-02-16T16:35:32;10.45;;;4.94;;
56680;SDS011;42558;52.388;13.390;2024-02-16T16:38:02;8.55;;;4.37;;
56680;SDS011;42558;52.388;13.390;2024-02-16T16:40:36;10.07;;;4.18;;
56680;SDS011;42558;52.388;13.390;2024-02-16T16:43:07;9.12;;;4.18;;
56680;SDS011;42558;52.388;13.390;2024-02-16T16:45:37;9.12;;;4.75;;
56680;SDS011;42558;52.388;13.390;2024-02-16T16:48:08;9.69;;;4.75;;
56680;SDS011;42558;52.388;13.390;2024-02-16T16:50:38;8.36;;;3.99;;
56680;SDS011;42558;52.388;13.390;2024-02-16T16:53:10;8.55;;;4.37;;
56680;SDS011;42558;52.388;13.390;2024-02-16T16:55:40;8.74;;;4.56;;
56680;SDS011;42558;52.388;13.390;2024-02-16T16:58:10;9.69;;;5.32;;
56680;SDS011;42558;52.388;13.390;2024-02-16T17:00:40;9.31;;;4.37;;
56680;SDS011;42558;52.388;13.390;2024-02-16T17:03:11;8.74;;;4.56;;
56680;SDS011;42558;52.388;13.390;2024-02-16T17:05:44;10.45;;;4.18;;
56680;SDS011;42558;52.388;13.390;2024-02-16T17:08:14;9.69;;;4.18;;
56680;SDS011;42558;52.388;13.390;2024-02-16T17:10:44;8.74;;;4.56;;
56680;SDS011;42558;52.388;13.390;2024-02-16T17:13:12;7.41;;;4.18;;
56680;SDS011;42558;52.388;13.390;2024-02-16T17:15:43;9.69;;;4.37;;
56680;SDS011;42558;52.388;13.390;2024-02-16T17:18:14;7.98;;;3.80;;
56680;SDS011;42558;52.388;13.390;2024-02-16T17:20:45;8.55;;;3.99;;
56680;SDS011;42558;52.388;13.390;2024-02-16T17:23:17;7.41;;;4.37;;
56680;SDS011;42558;52.388;13.390;2024-02-16T17:25:47;8.93;;;4.56;;
56680;SDS011;42558;52.388;13.390;2024-02-16T17:28:18;7.60;;;3.80;;
56680;SDS011;42558;52.388;13.390;2024-02-16T17:30:48;8.93;;;4.56;;
56680;SDS011;42558;52.388;13.390;2024-02-16T17:33:18;9.88;;;4.75;;
56680;SDS011;42558;52.388;13.390;2024-02-16T17:35:48;8.55;;;4.18;;
56680;SDS011;42558;52.388;13.390;2024-02-16T17:38:18;8.74;;;4.18;;
56680;SDS011;42558;52.388;13.390;2024-02-16T17:40:49;10.07;;;4.75;;
56680;SDS011;42558;52.388;13.390;2024-02-16T17:43:19;9.31;;;5.13;;
56680;SDS011;42558;52.388;13.390;2024-02-16T17:45:49;8.36;;;4.37;;
56680;SDS011;42558;52.388;13.390;2024-02-16T17:48:19;10.26;;;4.37;;
56680;SDS011;42558;52.388;13.390;2024-02-16T17:50:50;9.31;;;4.56;;
56680;SDS011;42558;52.388;13.390;2024-02-16T17:53:20;7.79;;;4.37;;
56680;SDS011;42558;52.388;13.390;2024-02-16T17:55:50;8.17;;;5.32;;
56680;SDS011;42558;52.388;13.390;2024-02-16T17:58:20;10.83;;;5.51;;
56680;SDS011;42558;52.388;13.390;2024-02-16T18:00:49;8.55;;;4.94;;
56680;SDS011;42558;52.388;13.390;2024-02-16T18:03:20;10.45;;;5.13;;
56680;SDS011;42558;52.388;13.390;2024-02-16T18:05:50;10.07;;;5.13;;
56680;SDS011;42558;52.388;13.390;2024-02-16T18:08:20;10.45;;;5.13;;
56680;SDS011;42558;52.388;13.390;2024-02-16T18:10:50;9.88;;;5.51;;
56680;SDS011;42558;52.388;13.390;2024-02-16T18:13:22;9.12;;;5.51;;
56680;SDS011;42558;52.388;13.390;2024-02-16T18:15:52;11.02;;;5.70;;
56680;SDS011;42558;52.388;13.390;2024-02-16T18:18:25;8.93;;;5.32;;
56680;SDS011;42558;52.388;13.390;2024-02-16T18:20:56;8.93;;;5.51;;
56680;SDS011;42558;52.388;13.390;2024-02-16T18:23:26;10.83;;;5.51;;
56680;SDS011;42558;52.388;13.390;2024-02-16T18:25:58;10.07;;;5.51;;
56680;SDS011;42558;52.388;13.390;2024-02-16T18:28:29;9.12;;;5.51;;
56680;SDS011;42558;52.388;13.390;2024-02-16T18:31:12;12.54;;;5.70;;
56680;SDS011;42558;52.388;13.390;2024-02-16T18:33:40;11.21;;;5.51;;
56680;SDS011;42558;52.388;13.390;2024-02-16T18:36:08;10.45;;;6.27;;
56680;SDS011;42558;52.388;13.390;2024-02-16T18:38:37;9.50;;;5.51;;
56680;SDS011;42558;52.388;13.390;2024-02-16T18:41:12;10.64;;;6.08;;
56680;SDS011;42558;52.388;13.390;2024-02-16T18:43:42;10.83;;;6.08;;
56680;SDS011;42558;52.388;13.390;2024-02-16T18:46:13;11.02;;;5.70;;
56680;SDS011;42558;52.388;13.390;2024-02-16T18:48:45;10.26;;;5.51;;
56680;SDS011;42558;52.388;13.390;2024-02-16T18:51:16;9.50;;;5.70;;
56680;SDS011;42558;52.388;13.390;2024-02-16T18:53:46;9.88;;;6.08;;
56680;SDS011;42558;52.388;13.390;2024-02-16T18:56:16;11.02;;;5.70;;
56680;SDS011;42558;52.388;13.390;2024-02-16T18:58:47;8.93;;;5.13;;
56680;SDS011;42558;52.388;13.390;2024-02-16T19:01:17;11.97;;;5.51;;
56680;SDS011;42558;52.388;13.390;2024-02-16T19:03:48;10.07;;;5.32;;
56680;SDS011;42558;52.388;13.390;2024-02-16T19:06:18;11.40;;;5.89;;
56680;SDS011;42558;52.388;13.390;2024-02-16T19:08:49;12.16;;;5.70;;
56680;SDS011;42558;52.388;13.390;2024-02-16T19:11:20;13.68;;;7.22;;
56680;SDS011;42558;52.388;13.390;2024-02-16T19:13:50;11.40;;;6.08;;
56680;SDS011;42558;52.388;13.390;2024-02-16T19:16:20;11.59;;;6.27;;
56680;SDS011;42558;52.388;13.390;2024-02-16T19:18:50;11.97;;;5.70;;
56680;SDS011;42558;52.388;13.390;2024-02-16T19:21:19;11.02;;;5.89;;
56680;SDS011;42558;52.388;13.390;2024-02-16T19:23:49;14.63;;;5.89;;
56680;SDS011;42558;52.388;13.390;2024-02-16T19:26:20;11.40;;;6.27;;
56680;SDS011;42558;52.388;13.390;2024-02-16T19:28:50;10.07;;;5.51;;
56680;SDS011;42558;52.388;13.390;2024-02-16T19:31:20;15.77;;;6.84;;
56680;SDS011;42558;52.388;13.390;2024-02-16T19:33:50;11.02;;;5.89;;
56680;SDS011;42558;52.388;13.390;2024-02-16T19:36:20;14.44;;;7.03;;
56680;SDS011;42558;52.388;13.390;2024-02-16T19:38:50;11.21;;;6.27;;
56680;SDS011;42558;52.388;13.390;2024-02-16T19:41:20;12.54;;;6.84;;
56680;SDS011;42558;52.388;13.390;2024-02-16T19:43:50;14.25;;;7.03;;
56680;SDS011;42558;52.388;13.390;2024-02-16T19:46:20;11.59;;;6.27;;
56680;SDS011;42558;52.388;13.390;2024-02-16T19:48:50;12.16;;;6.65;;
56680;SDS011;42558;52.388;13.390;2024-02-16T19:51:20;12.16;;;6.65;;
56680;SDS011;42558;52.388;13.390;2024-02-16T19:53:52;14.06;;;7.22;;
56680;SDS011;42558;52.388;13.390;2024-02-16T19:56:22;13.49;;;7.22;;
56680;SDS011;42558;52.388;13.390;2024-02-16T19:58:52;11.97;;;6.84;;
56680;SDS011;42558;52.388;13.390;2024-02-16T20:01:22;11.40;;;6.65;;
56680;SDS011;42558;52.388;13.390;2024-02-16T20:03:52;16.53;;;7.60;;
56680;SDS011;42558;52.388;13.390;2024-02-16T20:06:22;11.02;;;6.65;;
56680;SDS011;42558;52.388;13.390;2024-02-16T20:08:58;13.68;;;7.03;;
56680;SDS011;42558;52.388;13.390;2024-02-16T20:11:28;16.53;;;7.41;;
56680;SDS011;42558;52.388;13.390;2024-02-16T20:13:59;13.30;;;7.98;;
56680;SDS011;42558;52.388;13.390;2024-02-16T20:16:30;15.58;;;7.79;;
56680;SDS011;42558;52.388;13.390;2024-02-16T20:19:01;13.11;;;7.22;;
56680;SDS011;42558;52.388;13.390;2024-02-16T20:21:35;13.30;;;7.41;;
56680;SDS011;42558;52.388;13.390;2024-02-16T20:24:06;16.15;;;7.60;;
56680;SDS011;42558;52.388;13.390;2024-02-16T20:26:37;15.20;;;7.60;;
56680;SDS011;42558;52.388;13.390;2024-02-16T20:29:08;14.63;;;8.55;;
56680;SDS011;42558;52.388;13.390;2024-02-16T20:31:38;13.87;;;6.84;;
56680;SDS011;42558;52.388;13.390;2024-02-16T20:34:08;13.68;;;7.22;;
56680;SDS011;42558;52.388;13.390;2024-02-16T20:36:39;14.25;;;6.84;;
56680;SDS011;42558;52.388;13.390;2024-02-16T20:39:09;14.06;;;7.60;;
56680;SDS011;42558;52.388;13.390;2024-02-16T20:41:41;15.20;;;7.22;;
56680;SDS011;42558;52.388;13.390;2024-02-16T20:44:13;14.63;;;7.22;;
56680;SDS011;42558;52.388;13.390;2024-02-16T20:46:49;15.39;;;7.79;;
56680;SDS011;42558;52.388;13.390;2024-02-16T20:49:20;14.63;;;8.17;;
56680;SDS011;42558;52.388;13.390;2024-02-16T20:51:50;11.97;;;7.79;;
56680;SDS011;42558;52.388;13.390;2024-02-16T20:54:20;15.77;;;8.17;;
56680;SDS011;42558;52.388;13.390;2024-02-16T20:56:53;16.15;;;7.60;;
56680;SDS011;42558;52.388;13.390;2024-02-16T20:59:23;13.68;;;8.17;;
56680;SDS011;42558;52.388;13.390;2024-02-16T21:01:53;14.25;;;8.17;;
56680;SDS011;42558;52.388;13.390;2024-02-16T21:04:34;17.67;;;8.55;;
56680;SDS011;42558;52.388;13.390;2024-02-16T21:07:03;13.49;;;7.98;;
56680;SDS011;42558;52.388;13.390;2024-02-16T21:09:34;15.39;;;8.36;;
56680;SDS011;42558;52.388;13.390;2024-02-16T21:12:05;19.19;;;8.36;;
56680;SDS011;42558;52.388;13.390;2024-02-16T21:14:35;15.77;;;8.74;;
56680;SDS011;42558;52.388;13.390;2024-02-16T21:17:05;21.85;;;8.93;;
56680;SDS011;42558;52.388;13.390;2024-02-16T21:19:34;15.96;;;7.79;;
56680;SDS011;42558;52.388;13.390;2024-02-16T21:22:04;15.01;;;8.74;;
56680;SDS011;42558;52.388;13.390;2024-02-16T21:24:34;14.44;;;8.36;;
56680;SDS011;42558;52.388;13.390;2024-02-16T21:27:04;18.43;;;9.88;;
56680;SDS011;42558;52.388;13.390;2024-02-16T21:29:36;18.62;;;9.88;;
56680;SDS011;42558;52.388;13.390;2024-02-16T21:32:07;17.86;;;10.45;;
56680;SDS011;42558;52.388;13.390;2024-02-16T21:34:37;17.86;;;9.50;;
56680;SDS011;42558;52.388;13.390;2024-02-16T21:37:07;20.90;;;11.02;;
56680;SDS011;42558;52.388;13.390;2024-02-16T21:39:37;18.81;;;11.78;;
56680;SDS011;42558;52.388;13.390;2024-02-16T21:42:07;18.81;;;11.02;;
56680;SDS011;42558;52.388;13.390;2024-02-16T21:44:38;22.80;;;12.73;;
56680;SDS011;42558;52.388;13.390;2024-02-16T21:47:10;19.57;;;11.02;;
56680;SDS011;42558;52.388;13.390;2024-02-16T21:49:40;17.48;;;11.02;;
56680;SDS011;42558;52.388;13.390;2024-02-16T21:52:10;21.28;;;12.73;;
56680;SDS011;42558;52.388;13.390;2024-02-16T21:54:40;22.23;;;14.25;;
56680;SDS011;42558;52.388;13.390;2024-02-16T21:57:11;24.13;;;14.25;;
56680;SDS011;42558;52.388;13.390;2024-02-16T21:59:41;25.84;;;13.87;;
56680;SDS011;42558;52.388;13.390;2024-02-16T22:02:11;21.09;;;15.20;;
56680;SDS011;42558;52.388;13.390;2024-02-16T22:04:43;25.84;;;15.39;;
56680;SDS011;42558;52.388;13.390;2024-02-16T22:07:13;23.18;;;15.77;;
56680;SDS011;42558;52.388;13.390;2024-02-16T22:09:44;27.93;;;16.91;;
56680;SDS011;42558;52.388;13.390;2024-02-16T22:12:14;27.17;;;17.67;;
56680;SDS011;42558;52.388;13.390;2024-02-16T22:14:45;24.70;;;15.96;;
56680;SDS011;42558;52.388;13.390;2024-02-16T22:17:15;25.65;;;17.29;;
56680;SDS011;42558;52.388;13.390;2024-02-16T22:19:45;30.40;;;18.24;;
56680;SDS011;42558;52.388;13.390;2024-02-16T22:22:15;29.07;;;18.24;;
56680;SDS011;42558;52.388;13.390;2024-02-16T22:24:45;22.99;;;16.91;;
56680;SDS011;42558;52.388;13.390;2024-02-16T22:27:16;26.60;;;18.05;;
56680;SDS011;42558;52.388;13.390;2024-02-16T22:29:46;31.35;;;18.62;;
56680;SDS011;42558;52.388;13.390;2024-02-16T22:32:16;27.93;;;18.43;;
56680;SDS011;42558;52.388;13.390;2024-02-16T22:34:47;31.54;;;18.81;;
56680;SDS011;42558;52.388;13.390;2024-02-16T22:37:18;26.41;;;17.29;;
56680;SDS011;42558;52.388;13.390;2024-02-16T22:39:48;27.55;;;18.43;;
56680;SDS011;42558;52.388;13.390;2024-02-16T22:42:20;24.51;;;15.39;;
56680;SDS011;42558;52.388;13.390;2024-02-16T22:44:50;28.12;;;18.05;;
56680;SDS011;42558;52.388;13.390;2024-02-16T22:47:20;27.93;;;19.00;;
56680;SDS011;42558;52.388;13.390;2024-02-16T22:49:50;34.01;;;20.52;;
56680;SDS011;42558;52.388;13.390;2024-02-16T22:52:21;28.50;;;18.05;;
56680;SDS011;42558;52.388;13.390;2024-02-16T22:54:51;32.30;;;20.90;;
56680;SDS011;42558;52.388;13.390;2024-02-16T22:57:21;30.78;;;19.38;;
56680;SDS011;42558;52.388;13.390;2024-02-16T22:59:51;28.88;;;19.95;;
56680;SDS011;42558;52.388;13.390;2024-02-16T23:02:21;31.16;;;19.57;;
56680;SDS011;42558;52.388;13.390;2024-02-16T23:04:51;31.92;;;21.47;;
56680;SDS011;42558;52.388;13.390;2024-02-16T23:07:23;30.59;;;19.76;;
56680;SDS011;42558;52.388;13.390;2024-02-16T23:09:53;30.97;;;20.52;;
56680;SDS011;42558;52.388;13.390;2024-02-16T23:12:23;28.31;;;18.62;;
56680;SDS011;42558;52.388;13.390;2024-02-16T23:14:56;30.21;;;19.57;;
56680;SDS011;42558;52.388;13.390;2024-02-16T23:17:27;30.40;;;21.28;;
56680;SDS011;42558;52.388;13.390;2024-02-16T23:19:58;30.40;;;18.81;;
56680;SDS011;42558;52.388;13.390;2024-02-16T23:22:29;28.69;;;19.76;;
56680;SDS011;42558;52.388;13.390;2024-02-16T23:24:59;30.59;;;19.19;;
56680;SDS011;42558;52.388;13.390;2024-02-16T23:27:30;29.45;;;19.00;;
56680;SDS011;42558;52.388;13.390;2024-02-16T23:30:01;27.55;;;18.81;;
56680;SDS011;42558;52.388;13.390;2024-02-16T23:32:30;28.31;;;17.48;;
56680;SDS011;42558;52.388;13.390;2024-02-16T23:34:59;23.75;;;16.15;;
56680;SDS011;42558;52.388;13.390;2024-02-16T23:37:29;26.98;;;16.34;;
56680;SDS011;42558;52.388;13.390;2024-02-16T23:39:57;23.75;;;14.44;;
56680;SDS011;42558;52.388;13.390;2024-02-16T23:42:28;23.75;;;15.58;;
56680;SDS011;42558;52.388;13.390;2024-02-16T23:44:59;23.56;;;15.01;;
56680;SDS011;42558;52.388;13.390;2024-02-16T23:47:29;25.08;;;15.39;;
56680;SDS011;42558;52.388;13.390;2024-02-16T23:49:59;24.89;;;16.34;;
56680;SDS011;42558;52.388;13.390;2024-02-16T23:52:30;23.37;;;15.96;;
56680;SDS011;42558;52.388;13.390;2024-02-16T23:55:04;26.41;;;15.96;;
56680;SDS011;42558;52.388;13.390;2024-02-16T23:57:35;25.46;;;17.48;;
